Time,TemperatureF,DewpointF,PressureIn,WindDirection,WindDirectionDegrees,WindSpeedMPH,WindSpeedGustMPH,Humidity,HourlyPrecipIn,Conditions,Clouds,dailyrainin,SoftwareType,DateUTC
2013-07-24 00:00:00,72.3,70.5,29.71,WSW,239,0.0,0.0,94,0.00,,,0.00,Wunderground v.1.15,2013-07-24 04:00:00,
2013-07-24 00:05:00,72.2,70.4,29.70,WSW,239,0.0,0.0,94,0.00,,,0.00,Wunderground v.1.15,2013-07-24 04:05:00,
2013-07-24 00:09:00,72.2,70.4,29.70,WSW,239,0.0,0.0,94,0.00,,,0.00,Wunderground v.1.15,2013-07-24 04:09:00,
2013-07-24 00:15:00,72.0,69.9,29.70,WSW,239,0.0,0.0,93,0.00,,,0.00,Wunderground v.1.15,2013-07-24 04:15:00,
2013-07-24 00:20:00,71.9,69.4,29.70,WSW,239,0.0,0.0,92,0.00,,,0.00,Wunderground v.1.15,2013-07-24 04:20:00,
2013-07-24 00:30:00,72.5,68.7,29.70,WSW,239,0.0,0.0,88,0.00,,,0.00,Wunderground v.1.15,2013-07-24 04:30:00,
2013-07-24 00:35:00,73.1,69.0,29.70,SW,231,0.0,0.0,87,0.00,,,0.00,Wunderground v.1.15,2013-07-24 04:35:00,
2013-07-24 00:45:00,73.6,70.2,29.70,SW,223,0.0,0.0,89,0.00,,,0.00,Wunderground v.1.15,2013-07-24 04:45:00,
2013-07-24 00:50:00,73.6,70.2,29.70,SW,223,0.0,0.0,89,0.00,,,0.00,Wunderground v.1.15,2013-07-24 04:50:00,
2013-07-24 01:00:00,73.3,70.2,29.70,SW,223,0.0,0.0,90,0.00,,,0.00,Wunderground v.1.15,2013-07-24 05:00:00,
2013-07-24 01:05:00,73.3,70.5,29.69,SW,223,0.0,0.0,91,0.00,,,0.00,Wunderground v.1.15,2013-07-24 05:05:00,
2013-07-24 01:14:00,72.9,70.4,29.69,SW,223,0.0,0.0,92,0.00,,,0.00,Wunderground v.1.15,2013-07-24 05:14:00,
2013-07-24 01:20:00,72.6,70.1,29.69,SW,223,0.0,0.0,92,0.00,,,0.00,Wunderground v.1.15,2013-07-24 05:20:00,
2013-07-24 01:25:00,72.3,70.2,29.69,SW,223,0.0,0.0,93,0.00,,,0.00,Wunderground v.1.15,2013-07-24 05:25:00,
2013-07-24 01:35:00,72.0,70.2,29.69,SW,223,0.0,0.0,94,0.00,,,0.00,Wunderground v.1.15,2013-07-24 05:35:00,
2013-07-24 01:45:00,71.7,69.9,29.69,SW,223,0.0,0.0,94,0.00,,,0.00,Wunderground v.1.15,2013-07-24 05:45:00,
2013-07-24 01:50:00,71.5,69.7,29.68,SW,223,0.0,0.0,94,0.00,,,0.00,Wunderground v.1.15,2013-07-24 05:50:00,
2013-07-24 01:55:00,71.3,69.2,29.68,SW,223,0.0,0.0,93,0.00,,,0.00,Wunderground v.1.15,2013-07-24 05:55:00,
2013-07-24 02:05:00,71.3,69.2,29.68,SW,223,0.0,0.0,93,0.00,,,0.00,Wunderground v.1.15,2013-07-24 06:05:00,
2013-07-24 02:14:00,71.3,69.2,29.67,SW,223,0.0,0.0,93,0.00,,,0.00,Wunderground v.1.15,2013-07-24 06:14:00,
2013-07-24 02:20:00,71.3,68.9,29.67,SW,223,0.0,0.0,92,0.00,,,0.00,Wunderground v.1.15,2013-07-24 06:20:00,
2013-07-24 02:25:00,71.3,68.9,29.67,SW,223,0.0,0.0,92,0.00,,,0.00,Wunderground v.1.15,2013-07-24 06:25:00,
2013-07-24 02:30:00,71.3,68.9,29.67,SW,223,0.0,2.0,92,0.00,,,0.00,Wunderground v.1.15,2013-07-24 06:30:00,
2013-07-24 02:40:00,71.3,68.5,29.67,SW,221,0.0,0.0,91,0.00,,,0.00,Wunderground v.1.15,2013-07-24 06:40:00,
2013-07-24 02:50:00,71.5,68.1,29.67,South,190,0.0,0.0,89,0.00,,,0.00,Wunderground v.1.15,2013-07-24 06:50:00,
2013-07-24 02:55:00,71.7,68.3,29.67,South,190,0.0,0.0,89,0.00,,,0.00,Wunderground v.1.15,2013-07-24 06:55:00,
2013-07-24 03:05:00,72.0,67.6,29.66,South,190,0.0,0.0,86,0.00,,,0.00,Wunderground v.1.15,2013-07-24 07:05:00,
2013-07-24 03:15:00,72.4,68.0,29.66,South,190,0.0,0.0,86,0.00,,,0.00,Wunderground v.1.15,2013-07-24 07:15:00,
2013-07-24 03:25:00,72.5,68.1,29.66,South,190,0.0,0.0,86,0.00,,,0.00,Wunderground v.1.15,2013-07-24 07:25:00,
2013-07-24 03:30:00,72.6,67.8,29.65,South,189,0.0,0.0,85,0.00,,,0.00,Wunderground v.1.15,2013-07-24 07:30:00,
2013-07-24 03:40:00,72.6,68.2,29.65,South,189,0.0,0.0,86,0.00,,,0.00,Wunderground v.1.15,2013-07-24 07:40:00,
2013-07-24 03:49:00,72.5,67.7,29.65,South,189,0.0,0.0,85,0.00,,,0.00,Wunderground v.1.15,2013-07-24 07:49:00,
2013-07-24 03:55:00,72.4,68.0,29.65,South,189,0.0,0.0,86,0.00,,,0.00,Wunderground v.1.15,2013-07-24 07:55:00,
2013-07-24 04:05:00,72.5,67.7,29.65,South,189,0.0,0.0,85,0.00,,,0.00,Wunderground v.1.15,2013-07-24 08:05:00,
2013-07-24 04:15:00,72.5,67.7,29.65,South,189,0.0,0.0,85,0.00,,,0.00,Wunderground v.1.15,2013-07-24 08:15:00,
2013-07-24 04:25:00,72.6,68.2,29.65,South,189,0.0,0.0,86,0.00,,,0.00,Wunderground v.1.15,2013-07-24 08:25:00,
2013-07-24 04:30:00,72.6,68.5,29.65,South,189,0.0,0.0,87,0.00,,,0.00,Wunderground v.1.15,2013-07-24 08:30:00,
2013-07-24 04:40:00,72.2,69.1,29.65,South,189,0.0,0.0,90,0.00,,,0.00,Wunderground v.1.15,2013-07-24 08:40:00,
2013-07-24 04:45:00,71.9,68.8,29.65,South,189,0.0,0.0,90,0.00,,,0.00,Wunderground v.1.15,2013-07-24 08:45:00,
2013-07-24 04:55:00,71.3,67.6,29.65,South,189,0.0,0.0,88,0.00,,,0.00,Wunderground v.1.15,2013-07-24 08:55:00,
2013-07-24 05:05:00,71.3,68.2,29.66,South,189,0.0,0.0,90,0.00,,,0.00,Wunderground v.1.15,2013-07-24 09:05:00,
2013-07-24 05:15:00,71.0,68.2,29.66,South,189,0.0,0.0,91,0.00,,,0.00,Wunderground v.1.15,2013-07-24 09:15:00,
2013-07-24 05:20:00,70.9,68.1,29.66,South,189,0.0,0.0,91,0.00,,,0.00,Wunderground v.1.15,2013-07-24 09:20:00,
2013-07-24 05:30:00,70.6,68.5,29.66,South,189,0.0,0.0,93,0.00,,,0.00,Wunderground v.1.15,2013-07-24 09:30:00,
2013-07-24 05:40:00,70.1,68.0,29.67,South,189,0.0,0.0,93,0.00,,,0.00,Wunderground v.1.15,2013-07-24 09:40:00,
2013-07-24 05:45:00,70.0,67.9,29.67,South,189,0.0,0.0,93,0.00,,,0.00,Wunderground v.1.15,2013-07-24 09:45:00,
2013-07-24 05:55:00,69.9,68.1,29.67,South,189,0.0,0.0,94,0.00,,,0.00,Wunderground v.1.15,2013-07-24 09:55:00,
2013-07-24 06:00:00,69.7,67.9,29.67,South,189,0.0,0.0,94,0.00,,,0.00,Wunderground v.1.15,2013-07-24 10:00:00,
2013-07-24 06:05:00,69.4,67.6,29.67,South,189,0.0,0.0,94,0.00,,,0.00,Wunderground v.1.15,2013-07-24 10:05:00,
2013-07-24 06:15:00,69.2,67.4,29.68,South,189,0.0,0.0,94,0.00,,,0.00,Wunderground v.1.15,2013-07-24 10:15:00,
2013-07-24 06:20:00,69.1,67.6,29.68,South,189,0.0,0.0,95,0.00,,,0.00,Wunderground v.1.15,2013-07-24 10:20:00,
2013-07-24 06:30:00,68.7,67.2,29.69,South,189,0.0,0.0,95,0.00,,,0.00,Wunderground v.1.15,2013-07-24 10:30:00,
2013-07-24 06:35:00,68.6,67.1,29.69,South,189,0.0,0.0,95,0.00,,,0.00,Wunderground v.1.15,2013-07-24 10:35:00,
2013-07-24 06:45:00,68.6,67.1,29.69,South,189,0.0,0.0,95,0.00,,,0.00,Wunderground v.1.15,2013-07-24 10:45:00,
2013-07-24 06:55:00,68.8,67.3,29.69,South,189,0.0,0.0,95,0.00,,,0.00,Wunderground v.1.15,2013-07-24 10:55:00,
2013-07-24 07:00:00,68.9,67.7,29.69,South,189,0.0,0.0,96,0.00,,,0.00,Wunderground v.1.15,2013-07-24 11:00:00,
2013-07-24 07:05:00,69.0,67.8,29.69,South,189,0.0,0.0,96,0.00,,,0.00,Wunderground v.1.15,2013-07-24 11:05:00,
2013-07-24 07:14:00,68.9,67.7,29.70,South,189,0.0,0.0,96,0.00,,,0.00,Wunderground v.1.15,2013-07-24 11:14:00,
2013-07-24 07:20:00,68.8,67.6,29.70,South,189,0.0,0.0,96,0.00,,,0.00,Wunderground v.1.15,2013-07-24 11:20:00,
2013-07-24 07:30:00,69.0,68.1,29.70,South,189,0.0,0.0,97,0.00,,,0.00,Wunderground v.1.15,2013-07-24 11:30:00,
2013-07-24 07:35:00,69.1,68.2,29.70,South,189,0.0,0.0,97,0.00,,,0.00,Wunderground v.1.15,2013-07-24 11:35:00,
2013-07-24 07:45:00,69.3,68.1,29.70,South,189,0.0,0.0,96,0.00,,,0.00,Wunderground v.1.15,2013-07-24 11:45:00,
2013-07-24 07:54:00,69.8,68.3,29.70,SSW,192,0.0,0.0,95,0.00,,,0.00,Wunderground v.1.15,2013-07-24 11:54:00,
2013-07-24 08:00:00,70.1,68.9,29.71,SSW,192,0.0,0.0,96,0.00,,,0.00,Wunderground v.1.15,2013-07-24 12:00:00,
2013-07-24 08:05:00,70.3,68.8,29.70,SSW,192,0.0,0.0,95,0.00,,,0.00,Wunderground v.1.15,2013-07-24 12:05:00,
2013-07-24 08:15:00,70.7,68.9,29.71,SSW,192,0.0,0.0,94,0.00,,,0.00,Wunderground v.1.15,2013-07-24 12:15:00,
2013-07-24 08:20:00,71.0,69.5,29.71,SSW,192,0.0,0.0,95,0.00,,,0.00,Wunderground v.1.15,2013-07-24 12:20:00,
2013-07-24 08:30:00,71.7,70.2,29.72,SSW,192,0.0,0.0,95,0.00,,,0.00,Wunderground v.1.15,2013-07-24 12:30:00,
2013-07-24 08:35:00,72.0,70.2,29.72,SSW,192,0.0,0.0,94,0.00,,,0.00,Wunderground v.1.15,2013-07-24 12:35:00,
2013-07-24 08:45:00,72.4,69.9,29.73,SSW,192,0.0,0.0,92,0.00,,,0.00,Wunderground v.1.15,2013-07-24 12:45:00,
2013-07-24 08:50:00,72.6,69.8,29.73,SSW,192,0.0,0.0,91,0.00,,,0.00,Wunderground v.1.15,2013-07-24 12:50:00,
2013-07-24 09:00:00,73.9,71.1,29.74,SSW,192,0.0,0.0,91,0.00,,,0.00,Wunderground v.1.15,2013-07-24 13:00:00,
2013-07-24 09:05:00,74.5,71.4,29.74,SSW,192,0.0,0.0,90,0.00,,,0.00,Wunderground v.1.15,2013-07-24 13:05:00,
2013-07-24 09:14:00,75.4,72.3,29.74,SSW,192,0.0,0.0,90,0.00,,,0.00,Wunderground v.1.15,2013-07-24 13:14:00,
2013-07-24 09:20:00,75.7,72.6,29.75,SSW,192,0.0,0.0,90,0.00,,,0.00,Wunderground v.1.15,2013-07-24 13:20:00,
2013-07-24 09:25:00,75.9,72.1,29.74,SSW,192,0.0,0.0,88,0.00,,,0.00,Wunderground v.1.15,2013-07-24 13:25:00,
2013-07-24 09:35:00,76.3,73.1,29.74,SSW,192,0.0,0.0,90,0.00,,,0.00,Wunderground v.1.15,2013-07-24 13:35:00,
2013-07-24 09:45:00,76.7,73.2,29.74,SSW,192,0.0,0.0,89,0.00,,,0.00,Wunderground v.1.15,2013-07-24 13:45:00,
2013-07-24 09:50:00,76.9,73.1,29.74,SSW,192,0.0,0.0,88,0.00,,,0.00,Wunderground v.1.15,2013-07-24 13:50:00,
2013-07-24 10:00:00,77.2,72.7,29.75,SSW,192,0.0,0.0,86,0.00,,,0.00,Wunderground v.1.15,2013-07-24 14:00:00,
2013-07-24 10:05:00,77.4,73.2,29.75,SSW,192,0.0,0.0,87,0.00,,,0.00,Wunderground v.1.15,2013-07-24 14:05:00,
2013-07-24 10:14:00,77.6,73.8,29.75,SSW,192,0.0,0.0,88,0.00,,,0.00,Wunderground v.1.15,2013-07-24 14:14:00,
2013-07-24 10:20:00,77.6,73.1,29.75,SSW,192,0.0,0.0,86,0.00,,,0.00,Wunderground v.1.15,2013-07-24 14:20:00,
2013-07-24 10:25:00,77.8,73.6,29.75,SSW,193,0.0,0.0,87,0.00,,,0.00,Wunderground v.1.15,2013-07-24 14:25:00,
2013-07-24 10:35:00,77.9,73.4,29.75,NW,310,0.0,0.0,86,0.00,,,0.00,Wunderground v.1.15,2013-07-24 14:35:00,
2013-07-24 10:40:00,77.9,73.4,29.75,NW,310,0.0,0.0,86,0.00,,,0.00,Wunderground v.1.15,2013-07-24 14:40:00,
2013-07-24 10:50:00,78.3,74.1,29.75,NW,310,0.0,0.0,87,0.00,,,0.00,Wunderground v.1.15,2013-07-24 14:50:00,
2013-07-24 11:00:00,78.6,74.1,29.76,NW,310,0.0,0.0,86,0.00,,,0.00,Wunderground v.1.15,2013-07-24 15:00:00,
2013-07-24 11:05:00,78.7,73.8,29.75,NW,310,0.0,0.0,85,0.00,,,0.00,Wunderground v.1.15,2013-07-24 15:05:00,
2013-07-24 11:14:00,78.4,74.2,29.76,NW,310,0.0,0.0,87,0.00,,,0.00,Wunderground v.1.15,2013-07-24 15:14:00,
2013-07-24 11:19:00,78.3,74.1,29.76,NW,310,0.0,0.0,87,0.00,,,0.00,Wunderground v.1.15,2013-07-24 15:19:00,
2013-07-24 11:25:00,78.4,74.5,29.76,NW,310,0.0,0.0,88,0.00,,,0.00,Wunderground v.1.15,2013-07-24 15:25:00,
2013-07-24 11:35:00,78.7,74.2,29.76,NW,310,0.0,0.0,86,0.00,,,0.00,Wunderground v.1.15,2013-07-24 15:35:00,
2013-07-24 11:40:00,79.0,74.8,29.76,NW,310,0.0,0.0,87,0.00,,,0.00,Wunderground v.1.15,2013-07-24 15:40:00,
2013-07-24 11:50:00,79.3,74.4,29.76,NW,310,0.0,0.0,85,0.00,,,0.00,Wunderground v.1.15,2013-07-24 15:50:00,
2013-07-24 12:00:00,79.8,73.8,29.76,NW,310,0.0,0.0,82,0.00,,,0.00,Wunderground v.1.15,2013-07-24 16:00:00,
2013-07-24 12:05:00,80.1,74.1,29.76,NW,310,0.0,1.0,82,0.00,,,0.00,Wunderground v.1.15,2013-07-24 16:05:00,
2013-07-24 12:14:00,80.6,73.5,29.76,NW,308,0.0,0.0,79,0.00,,,0.00,Wunderground v.1.15,2013-07-24 16:14:00,
2013-07-24 12:20:00,80.7,74.3,29.76,NW,309,0.0,0.0,81,0.00,,,0.00,Wunderground v.1.15,2013-07-24 16:20:00,
2013-07-24 12:25:00,80.5,74.1,29.76,NW,309,0.0,0.0,81,0.00,,,0.00,Wunderground v.1.15,2013-07-24 16:25:00,
2013-07-24 12:35:00,79.8,74.5,29.76,NW,308,0.0,0.0,84,0.00,,,0.00,Wunderground v.1.15,2013-07-24 16:35:00,
2013-07-24 12:40:00,79.5,73.9,29.76,NW,309,0.0,0.0,83,0.00,,,0.00,Wunderground v.1.15,2013-07-24 16:40:00,
2013-07-24 12:50:00,80.4,74.8,29.76,NW,309,0.0,0.0,83,0.00,,,0.00,Wunderground v.1.15,2013-07-24 16:50:00,
2013-07-24 12:55:00,80.8,73.7,29.76,NW,309,0.0,1.0,79,0.00,,,0.00,Wunderground v.1.15,2013-07-24 16:55:00,
2013-07-24 13:05:00,81.8,74.6,29.76,WNW,291,0.0,0.0,79,0.00,,,0.00,Wunderground v.1.15,2013-07-24 17:05:00,
2013-07-24 13:15:00,83.2,74.8,29.76,WNW,291,0.0,0.0,76,0.00,,,0.00,Wunderground v.1.15,2013-07-24 17:15:00,
2013-07-24 13:25:00,83.7,74.1,29.75,WNW,290,0.0,0.0,73,0.00,,,0.00,Wunderground v.1.15,2013-07-24 17:25:00,
2013-07-24 13:30:00,84.0,74.4,29.75,WNW,290,0.0,0.0,73,0.00,,,0.00,Wunderground v.1.15,2013-07-24 17:30:00,
2013-07-24 13:40:00,84.5,73.6,29.75,WNW,290,0.0,0.0,70,0.00,,,0.00,Wunderground v.1.15,2013-07-24 17:40:00,
2013-07-24 13:50:00,83.8,74.6,29.75,WNW,290,0.0,0.0,74,0.00,,,0.00,Wunderground v.1.15,2013-07-24 17:50:00,
2013-07-24 13:55:00,82.8,74.1,29.75,WNW,290,0.0,0.0,75,0.00,,,0.00,Wunderground v.1.15,2013-07-24 17:55:00,
2013-07-24 14:05:00,81.2,74.1,29.74,WNW,290,0.0,0.0,79,0.00,,,0.00,Wunderground v.1.15,2013-07-24 18:05:00,
2013-07-24 14:15:00,80.8,74.0,29.75,WNW,290,0.0,0.0,80,0.00,,,0.00,Wunderground v.1.15,2013-07-24 18:15:00,
2013-07-24 14:25:00,79.9,73.2,29.75,WNW,290,0.0,0.0,80,0.00,,,0.00,Wunderground v.1.15,2013-07-24 18:25:00,
2013-07-24 14:30:00,79.3,73.3,29.75,WNW,290,0.0,0.0,82,0.00,,,0.00,Wunderground v.1.15,2013-07-24 18:30:00,
2013-07-24 14:40:00,78.6,73.0,29.76,WNW,290,0.0,0.0,83,0.00,,,0.00,Wunderground v.1.15,2013-07-24 18:40:00,
2013-07-24 14:45:00,78.1,73.9,29.75,WNW,290,0.0,0.0,87,0.00,,,0.00,Wunderground v.1.15,2013-07-24 18:45:00,
2013-07-24 14:55:00,77.2,73.7,29.75,WNW,290,0.0,0.0,89,0.00,,,0.00,Wunderground v.1.15,2013-07-24 18:55:00,
2013-07-24 15:00:00,77.0,73.5,29.75,WNW,290,0.0,0.0,89,0.00,,,0.00,Wunderground v.1.15,2013-07-24 19:00:00,
2013-07-24 15:05:00,76.9,73.1,29.75,WNW,290,0.0,0.0,88,0.00,,,0.00,Wunderground v.1.15,2013-07-24 19:05:00,
2013-07-24 15:15:00,77.2,73.4,29.75,WNW,289,0.0,0.0,88,0.00,,,0.00,Wunderground v.1.15,2013-07-24 19:15:00,
2013-07-24 15:20:00,77.6,73.4,29.75,WNW,290,0.0,0.0,87,0.00,,,0.00,Wunderground v.1.15,2013-07-24 19:20:00,
2013-07-24 15:30:00,79.8,75.2,29.75,WNW,289,0.0,0.0,86,0.00,,,0.00,Wunderground v.1.15,2013-07-24 19:30:00,
2013-07-24 15:35:00,81.1,75.8,29.76,WNW,290,0.0,0.0,84,0.00,,,0.00,Wunderground v.1.15,2013-07-24 19:35:00,
2013-07-24 15:45:00,82.7,75.9,29.75,WNW,291,0.0,0.0,80,0.00,,,0.00,Wunderground v.1.15,2013-07-24 19:45:00,
2013-07-24 15:55:00,82.7,74.0,29.75,WNW,290,0.0,0.0,75,0.00,,,0.00,Wunderground v.1.15,2013-07-24 19:55:00,
2013-07-24 16:00:00,82.1,73.8,29.75,WNW,291,0.0,0.0,76,0.00,,,0.00,Wunderground v.1.15,2013-07-24 20:00:00,
2013-07-24 16:05:00,82.3,74.0,29.75,WNW,290,0.0,0.0,76,0.00,,,0.00,Wunderground v.1.15,2013-07-24 20:05:00,
2013-07-24 16:14:00,82.0,72.9,29.74,WNW,290,0.0,0.0,74,0.00,,,0.00,Wunderground v.1.15,2013-07-24 20:14:00,
2013-07-24 16:20:00,81.5,72.0,29.74,WNW,290,0.0,0.0,73,0.00,,,0.00,Wunderground v.1.15,2013-07-24 20:20:00,
2013-07-24 16:30:00,81.2,72.9,29.74,WNW,290,0.0,0.0,76,0.00,,,0.00,Wunderground v.1.15,2013-07-24 20:30:00,
2013-07-24 16:35:00,81.1,73.6,29.74,WNW,291,0.0,0.0,78,0.00,,,0.00,Wunderground v.1.15,2013-07-24 20:35:00,
2013-07-24 16:45:00,81.1,73.2,29.74,WNW,290,0.0,0.0,77,0.00,,,0.00,Wunderground v.1.15,2013-07-24 20:45:00,
2013-07-24 16:50:00,81.8,74.3,29.74,WNW,290,0.0,0.0,78,0.00,,,0.00,Wunderground v.1.15,2013-07-24 20:50:00,
2013-07-24 17:00:00,82.8,74.5,29.74,WNW,290,0.0,0.0,76,0.00,,,0.00,Wunderground v.1.15,2013-07-24 21:00:00,
2013-07-24 17:05:00,82.5,73.8,29.74,WNW,290,0.0,0.0,75,0.00,,,0.00,Wunderground v.1.15,2013-07-24 21:05:00,
2013-07-24 17:14:00,81.2,73.3,29.74,WNW,290,0.0,0.0,77,0.00,,,0.00,Wunderground v.1.15,2013-07-24 21:14:00,
2013-07-24 17:20:00,80.7,73.2,29.74,WNW,290,0.0,0.0,78,0.00,,,0.00,Wunderground v.1.15,2013-07-24 21:20:00,
2013-07-24 17:29:00,79.7,72.6,29.75,WNW,290,0.0,0.0,79,0.00,,,0.00,Wunderground v.1.15,2013-07-24 21:29:00,
2013-07-24 17:35:00,79.2,72.9,29.75,WNW,290,0.0,0.0,81,0.00,,,0.00,Wunderground v.1.15,2013-07-24 21:35:00,
2013-07-24 17:40:00,78.9,72.9,29.75,WNW,290,0.0,0.0,82,0.00,,,0.00,Wunderground v.1.15,2013-07-24 21:40:00,
2013-07-24 17:50:00,77.9,73.4,29.75,WNW,289,0.0,0.0,86,0.00,,,0.01,Wunderground v.1.15,2013-07-24 21:50:00,
2013-07-24 18:00:00,76.2,72.7,29.75,WNW,290,0.0,0.0,89,0.08,,,0.03,Wunderground v.1.15,2013-07-24 22:00:00,
2013-07-24 18:05:00,75.6,72.8,29.76,WNW,289,0.0,0.0,91,0.15,,,0.04,Wunderground v.1.15,2013-07-24 22:05:00,
2013-07-24 18:14:00,74.9,72.7,29.77,WNW,291,0.0,0.0,93,0.29,,,0.08,Wunderground v.1.15,2013-07-24 22:14:00,
2013-07-24 18:20:00,74.6,72.4,29.77,WNW,290,0.0,0.0,93,0.26,,,0.11,Wunderground v.1.15,2013-07-24 22:20:00,
2013-07-24 18:25:00,74.1,71.9,29.77,NW,318,0.0,0.0,93,0.38,,,0.14,Wunderground v.1.15,2013-07-24 22:25:00,
2013-07-24 18:35:00,72.9,71.1,29.77,North,359,0.0,3.0,94,0.38,,,0.20,Wunderground v.1.15,2013-07-24 22:35:00,
2013-07-24 18:40:00,72.5,71.0,29.78,WNW,298,0.0,0.0,95,0.35,,,0.24,Wunderground v.1.15,2013-07-24 22:40:00,
2013-07-24 18:50:00,71.8,70.0,29.78,North,354,0.0,1.0,94,0.10,,,0.26,Wunderground v.1.15,2013-07-24 22:50:00,
2013-07-24 18:55:00,71.5,70.0,29.77,North,354,0.0,1.0,95,0.09,,,0.26,Wunderground v.1.15,2013-07-24 22:55:00,
2013-07-24 19:05:00,71.3,70.1,29.77,North,354,0.0,0.0,96,0.07,,,0.27,Wunderground v.1.15,2013-07-24 23:05:00,
2013-07-24 19:15:00,71.3,70.4,29.78,ESE,114,0.0,0.0,97,0.00,,,0.27,Wunderground v.1.15,2013-07-24 23:15:00,
2013-07-24 19:25:00,71.2,70.3,29.80,ESE,114,0.0,0.0,97,0.00,,,0.27,Wunderground v.1.15,2013-07-24 23:25:00,
2013-07-24 19:30:00,71.0,70.1,29.80,ESE,114,0.0,0.0,97,0.00,,,0.27,Wunderground v.1.15,2013-07-24 23:30:00,
2013-07-24 19:40:00,70.5,69.3,29.80,ESE,114,0.0,0.0,96,0.00,,,0.27,Wunderground v.1.15,2013-07-24 23:40:00,
2013-07-24 19:50:00,70.2,69.3,29.80,ESE,114,0.0,0.0,97,0.00,,,0.28,Wunderground v.1.15,2013-07-24 23:50:00,
2013-07-24 19:55:00,70.1,69.2,29.80,ESE,114,0.0,0.0,97,0.00,,,0.28,Wunderground v.1.15,2013-07-24 23:55:00,
2013-07-24 20:05:00,70.1,69.2,29.80,ESE,114,0.0,0.0,97,0.00,,,0.28,Wunderground v.1.15,2013-07-25 00:05:00,
2013-07-24 20:15:00,70.2,69.3,29.81,ESE,114,0.0,0.0,97,0.00,,,0.28,Wunderground v.1.15,2013-07-25 00:15:00,
2013-07-24 20:24:00,70.1,69.2,29.81,ESE,120,0.0,0.0,97,0.00,,,0.28,Wunderground v.1.15,2013-07-25 00:24:00,
2013-07-24 20:30:00,70.1,69.2,29.82,ESE,121,0.0,0.0,97,0.00,,,0.28,Wunderground v.1.15,2013-07-25 00:30:00,
2013-07-24 20:40:00,70.0,69.4,29.81,ESE,120,0.0,0.0,98,0.00,,,0.28,Wunderground v.1.15,2013-07-25 00:40:00,
2013-07-24 20:49:00,70.0,69.4,29.82,ESE,120,0.0,0.0,98,0.00,,,0.28,Wunderground v.1.15,2013-07-25 00:49:00,
2013-07-24 20:55:00,70.0,69.4,29.82,ESE,121,0.0,0.0,98,0.00,,,0.28,Wunderground v.1.15,2013-07-25 00:55:00,
2013-07-24 21:00:00,70.1,69.5,29.83,ESE,120,0.0,0.0,98,0.00,,,0.28,Wunderground v.1.15,2013-07-25 01:00:00,
2013-07-24 21:05:00,70.0,69.4,29.83,ESE,120,0.0,0.0,98,0.00,,,0.28,Wunderground v.1.15,2013-07-25 01:05:00,
2013-07-24 21:15:00,70.1,69.5,29.84,ESE,120,0.0,0.0,98,0.00,,,0.28,Wunderground v.1.15,2013-07-25 01:15:00,
2013-07-24 21:20:00,70.1,69.5,29.84,ESE,120,0.0,0.0,98,0.00,,,0.28,Wunderground v.1.15,2013-07-25 01:20:00,
2013-07-24 21:30:00,70.1,69.5,29.85,ESE,121,0.0,0.0,98,0.00,,,0.28,Wunderground v.1.15,2013-07-25 01:30:00,
2013-07-24 21:35:00,70.1,69.5,29.85,ESE,120,0.0,0.0,98,0.00,,,0.28,Wunderground v.1.15,2013-07-25 01:35:00,
2013-07-24 21:45:00,70.1,69.5,29.85,ESE,120,0.0,0.0,98,0.00,,,0.28,Wunderground v.1.15,2013-07-25 01:45:00,
2013-07-24 21:55:00,70.1,69.5,29.86,ESE,120,0.0,0.0,98,0.00,,,0.28,Wunderground v.1.15,2013-07-25 01:55:00,
2013-07-24 22:00:00,70.1,69.5,29.86,ESE,121,0.0,0.0,98,0.00,,,0.28,Wunderground v.1.15,2013-07-25 02:00:00,
2013-07-24 22:05:00,70.1,69.5,29.86,ESE,121,0.0,0.0,98,0.00,,,0.28,Wunderground v.1.15,2013-07-25 02:05:00,
2013-07-24 22:14:00,70.1,69.8,29.86,ESE,120,0.0,0.0,99,0.00,,,0.28,Wunderground v.1.15,2013-07-25 02:14:00,
2013-07-24 22:20:00,70.1,69.8,29.86,ESE,121,0.0,0.0,99,0.00,,,0.28,Wunderground v.1.15,2013-07-25 02:20:00,
2013-07-24 22:25:00,70.1,69.8,29.86,ESE,120,0.0,0.0,99,0.00,,,0.28,Wunderground v.1.15,2013-07-25 02:25:00,
2013-07-24 22:35:00,70.1,69.8,29.87,ESE,121,0.0,0.0,99,0.00,,,0.28,Wunderground v.1.15,2013-07-25 02:35:00,
2013-07-24 22:45:00,69.9,69.6,29.87,ESE,121,0.0,0.0,99,0.00,,,0.28,Wunderground v.1.15,2013-07-25 02:45:00,
2013-07-24 22:54:00,69.8,69.5,29.87,ESE,121,0.0,0.0,99,0.00,,,0.28,Wunderground v.1.15,2013-07-25 02:54:00,
2013-07-24 23:00:00,69.7,69.1,29.88,ESE,121,0.0,0.0,98,0.00,,,0.28,Wunderground v.1.15,2013-07-25 03:00:00,
2013-07-24 23:05:00,69.6,69.0,29.88,ESE,120,0.0,0.0,98,0.00,,,0.28,Wunderground v.1.15,2013-07-25 03:05:00,
2013-07-24 23:14:00,69.4,68.8,29.87,ESE,121,0.0,0.0,98,0.00,,,0.28,Wunderground v.1.15,2013-07-25 03:14:00,
2013-07-24 23:20:00,69.2,68.6,29.87,ESE,120,0.0,0.0,98,0.00,,,0.28,Wunderground v.1.15,2013-07-25 03:20:00,
2013-07-24 23:30:00,68.7,68.1,29.87,ESE,121,0.0,0.0,98,0.00,,,0.28,Wunderground v.1.15,2013-07-25 03:30:00,
2013-07-24 23:35:00,68.6,68.0,29.87,ESE,121,0.0,0.0,98,0.00,,,0.28,Wunderground v.1.15,2013-07-25 03:35:00,
2013-07-24 23:40:00,68.6,68.0,29.88,ESE,121,0.0,0.0,98,0.00,,,0.28,Wunderground v.1.15,2013-07-25 03:40:00,
2013-07-24 23:49:00,68.5,67.9,29.88,ESE,121,0.0,0.0,98,0.00,,,0.28,Wunderground v.1.15,2013-07-25 03:49:00,
2013-07-24 23:54:00,68.5,67.9,29.88,ESE,120,0.0,0.0,98,0.00,,,0.28,Wunderground v.1.15,2013-07-25 03:54:00,